Time;durP1;ratioP1;P1;durP2;ratioP2;P2;SDS_P1;SDS_P2;PMS_P1;PMS_P2;Temp;Humidity;BMP_temperature;BMP_pressure;BME280_temperature;BME280_humidity;BME280_pressure;Samples;Min_cycle;Max_cycle;Signal;HPM_P1;HPM_P2
2022/10/01 00:02:47;;;;;;;0.00;0.00;;;;;;;9.10;100.00;100507.66;10394937;28;20263;-92
2022/10/01 00:07:47;;;;;;;0.00;0.00;;;;;;;9.12;100.00;100492.38;10394941;28;20044;-92
2022/10/01 00:12:48;;;;;;;0.00;0.00;;;;;;;9.21;100.00;100499.41;10394809;28;20030;-92
2022/10/01 00:17:48;;;;;;;0.00;0.00;;;;;;;9.15;100.00;100487.59;10395007;28;20051;-92
2022/10/01 00:22:48;;;;;;;0.10;0.10;;;;;;;9.16;100.00;100480.44;10421496;28;20381;-92
2022/10/01 00:27:49;;;;;;;0.03;0.03;;;;;;;9.16;100.00;100485.75;10431143;28;20029;-91
2022/10/01 00:32:53;;;;;;;0.10;0.10;;;;;;;9.18;100.00;100479.28;10443953;23;20049;-73
2022/10/01 00:37:54;;;;;;;0.10;0.10;;;;;;;9.16;100.00;100475.13;10334571;28;20054;-73
2022/10/01 00:42:54;;;;;;;0.00;0.00;;;;;;;9.18;100.00;100462.53;10334537;28;20027;-73
2022/10/01 00:47:58;;;;;;;0.00;0.00;;;;;;;9.19;100.00;100448.22;10334757;28;20030;-73
2022/10/01 00:53:10;;;;;;;0.00;0.00;;;;;;;9.22;100.00;100447.91;10344805;28;20029;-73
2022/10/01 00:58:13;;;;;;;0.10;0.10;;;;;;;9.23;100.00;100442.44;10368387;28;20441;-73
2022/10/01 01:03:15;;;;;;;0.10;0.10;;;;;;;9.28;100.00;100431.34;10355998;28;20014;-73
2022/10/01 01:08:16;;;;;;;0.05;0.05;;;;;;;9.35;100.00;100431.53;10343092;28;20027;-73
2022/10/01 01:13:36;;;;;;;0.10;0.10;;;;;;;9.37;100.00;100422.41;10334017;28;20023;-73
2022/10/01 01:18:47;;;;;;;0.10;0.10;;;;;;;9.35;100.00;100424.38;10334188;28;20117;-73
2022/10/01 01:24:22;;;;;;;0.10;0.10;;;;;;;9.32;100.00;100416.75;10333264;28;20026;-73
2022/10/01 01:29:32;;;;;;;0.00;0.00;;;;;;;9.34;100.00;100403.28;10351573;28;20018;-73
2022/10/01 01:34:36;;;;;;;0.00;0.00;;;;;;;9.38;100.00;100401.97;10373024;28;20405;-73
2022/10/01 01:39:39;;;;;;;0.00;0.00;;;;;;;9.43;100.00;100392.53;10372737;28;20018;-73
2022/10/01 01:44:43;;;;;;;0.00;0.00;;;;;;;9.48;100.00;100386.69;10372331;28;20354;-73
2022/10/01 01:49:44;;;;;;;0.10;0.10;;;;;;;9.51;100.00;100363.31;10371643;28;20042;-73
2022/10/01 01:54:48;;;;;;;0.10;0.10;;;;;;;9.52;100.00;100351.66;10332065;28;20109;-73
2022/10/01 01:59:48;;;;;;;0.03;0.03;;;;;;;9.54;100.00;100327.59;10351295;28;20057;-73
2022/10/01 02:04:55;;;;;;;0.10;0.10;;;;;;;9.60;100.00;100326.06;10371855;28;20021;-73
2022/10/01 02:10:25;;;;;;;0.00;0.00;;;;;;;9.64;100.00;100319.44;10371338;28;20473;-73
2022/10/01 02:15:51;;;;;;;0.10;0.10;;;;;;;9.71;100.00;100315.09;10371292;28;20018;-73
2022/10/01 02:21:18;;;;;;;0.10;0.10;;;;;;;9.75;100.00;100305.81;10370970;28;20049;-73
2022/10/01 02:26:22;;;;;;;0.10;0.10;;;;;;;9.76;100.00;100296.81;10370893;28;20033;-73
2022/10/01 02:31:22;;;;;;;0.00;0.00;;;;;;;9.79;100.00;100301.81;10362347;28;20100;-73
2022/10/01 02:36:24;;;;;;;0.10;0.10;;;;;;;9.82;100.00;100280.19;10348777;28;20022;-73
2022/10/01 02:41:30;;;;;;;0.10;0.10;;;;;;;9.86;100.00;100276.22;10351721;28;20108;-73
2022/10/01 02:46:51;;;;;;;0.10;0.10;;;;;;;9.89;100.00;100275.88;10370277;28;20014;-73
2022/10/01 02:51:58;;;;;;;0.08;0.08;;;;;;;9.92;100.00;100274.72;10369255;28;20032;-73
2022/10/01 03:02:22;;;;;;;0.05;0.05;;;;;;;9.98;100.00;100268.72;10367811;28;20025;-73
2022/10/01 03:07:29;;;;;;;0.00;0.00;;;;;;;10.01;100.00;100257.75;10355149;28;20105;-73
2022/10/01 03:12:29;;;;;;;0.10;0.10;;;;;;;10.02;100.00;100250.59;10368672;28;20026;-73
2022/10/01 03:17:29;;;;;;;0.10;0.10;;;;;;;9.99;100.00;100257.06;10369307;28;20396;-73
2022/10/01 03:22:30;;;;;;;0.03;0.03;;;;;;;9.96;100.00;100250.25;10342383;28;20026;-73
2022/10/01 03:27:30;;;;;;;0.10;0.10;;;;;;;9.90;100.00;100253.59;10327938;28;20064;-73
2022/10/01 03:32:31;;;;;;;0.10;0.10;;;;;;;9.79;100.00;100237.97;10334136;28;20500;-72
2022/10/01 03:37:32;;;;;;;0.10;0.10;;;;;;;9.70;100.00;100226.53;10364392;28;20229;-72
2022/10/01 03:42:32;;;;;;;0.10;0.10;;;;;;;9.61;100.00;100224.03;10335540;28;20018;-72
2022/10/01 03:47:33;;;;;;;0.10;0.10;;;;;;;9.51;100.00;100217.06;10327580;28;20037;-71
2022/10/01 03:52:33;;;;;;;0.00;0.00;;;;;;;9.42;100.00;100207.41;10330612;28;20045;-71
2022/10/01 03:57:33;;;;;;;0.00;0.00;;;;;;;9.37;100.00;100191.16;10339684;28;20014;-71
2022/10/01 04:02:34;;;;;;;0.00;0.00;;;;;;;9.32;100.00;100185.50;10344122;28;20014;-70
2022/10/01 04:07:34;;;;;;;0.10;0.10;;;;;;;9.27;100.00;100179.84;10356151;28;20481;-71
2022/10/01 04:12:35;;;;;;;0.10;0.10;;;;;;;9.21;100.00;100168.06;10360165;28;20026;-71
2022/10/01 04:17:36;;;;;;;0.10;0.10;;;;;;;9.18;100.00;100148.97;10336990;28;20022;-70
2022/10/01 04:22:40;;;;;;;0.10;0.10;;;;;;;9.17;100.00;100134.03;10346748;28;20018;-70
2022/10/01 04:27:53;;;;;;;0.00;0.00;;;;;;;9.18;100.00;100119.75;10352960;28;20381;-69
2022/10/01 04:32:54;;;;;;;0.08;0.08;;;;;;;9.19;100.00;100103.66;10344443;28;20508;-70
2022/10/01 04:38:02;;;;;;;0.00;0.00;;;;;;;9.21;100.00;100092.84;10344003;28;20104;-69
2022/10/01 04:43:04;;;;;;;0.00;0.00;;;;;;;9.23;100.00;100081.03;10347118;28;20100;-70
2022/10/01 04:48:04;;;;;;;0.10;0.10;;;;;;;9.25;100.00;100065.78;10356618;28;20040;-70
2022/10/01 04:53:04;;;;;;;0.00;0.00;;;;;;;9.27;100.00;100068.25;10340406;28;20118;-70
2022/10/01 04:58:05;;;;;;;0.10;0.10;;;;;;;9.22;100.00;100052.81;10344124;28;20062;-70
2022/10/01 05:03:05;;;;;;;0.00;0.00;;;;;;;9.19;100.00;100058.47;10356455;28;20350;-70
2022/10/01 05:08:06;;;;;;;0.00;0.00;;;;;;;9.17;100.00;100049.00;10335750;28;20076;-70
2022/10/01 05:13:08;;;;;;;0.00;0.00;;;;;;;9.12;100.00;100040.72;10356945;28;20029;-71
2022/10/01 05:18:08;;;;;;;0.10;0.10;;;;;;;9.07;100.00;100036.75;10340306;28;20064;-70
2022/10/01 05:23:08;;;;;;;0.03;0.03;;;;;;;9.02;100.00;100035.59;10354636;28;20131;-70
2022/10/01 05:28:09;;;;;;;0.00;0.00;;;;;;;8.99;100.00;100017.34;10366948;28;20379;-70
2022/10/01 05:33:09;;;;;;;0.10;0.10;;;;;;;8.95;100.00;100019.47;10357935;28;20458;-71
2022/10/01 05:38:09;;;;;;;0.00;0.00;;;;;;;8.94;100.00;100015.16;10353829;28;20038;-71
2022/10/01 05:43:10;;;;;;;0.10;0.10;;;;;;;8.94;100.00;100009.84;10353270;28;20025;-72
2022/10/01 05:48:10;;;;;;;0.00;0.00;;;;;;;8.91;100.00;100010.19;10350528;28;20385;-71
2022/10/01 05:53:12;;;;;;;0.00;0.00;;;;;;;8.94;100.00;100003.72;10356537;28;20494;-72
2022/10/01 05:58:13;;;;;;;0.00;0.00;;;;;;;8.93;100.00;99989.63;10360593;28;20026;-72
2022/10/01 06:03:14;;;;;;;0.10;0.10;;;;;;;8.97;100.00;99980.31;10350583;28;20390;-72
2022/10/01 06:08:14;;;;;;;0.00;0.00;;;;;;;8.98;100.00;99975.81;10337635;28;20026;-72
2022/10/01 06:13:16;;;;;;;0.10;0.10;;;;;;;8.99;100.00;99975.66;10361163;28;20040;-72
2022/10/01 06:18:17;;;;;;;0.00;0.00;;;;;;;9.01;100.00;99967.50;10353869;28;20056;-72
2022/10/01 06:23:17;;;;;;;0.00;0.00;;;;;;;9.02;100.00;99969.19;10353833;28;20021;-72
2022/10/01 06:28:18;;;;;;;0.03;0.03;;;;;;;9.01;100.00;99968.31;10350160;28;20022;-72
2022/10/01 06:33:18;;;;;;;0.00;0.00;;;;;;;9.03;100.00;99958.38;10371730;22;20122;-71
2022/10/01 06:38:21;;;;;;;0.00;0.00;;;;;;;9.04;100.00;99941.41;10452383;28;20547;-72
2022/10/01 06:43:22;;;;;;;0.00;0.00;;;;;;;9.05;100.00;99934.31;10451906;28;20096;-72
2022/10/01 06:48:22;;;;;;;0.10;0.10;;;;;;;9.03;100.00;99939.78;10452233;28;20021;-72
2022/10/01 06:53:23;;;;;;;0.00;0.00;;;;;;;9.05;100.00;99942.28;10451424;28;20013;-71
2022/10/01 06:58:25;;;;;;;0.05;0.05;;;;;;;9.04;100.00;99946.72;10452022;28;20035;-72
2022/10/01 07:03:26;;;;;;;0.00;0.00;;;;;;;9.05;100.00;99937.78;10451198;28;20017;-72
2022/10/01 07:08:26;;;;;;;0.10;0.10;;;;;;;9.05;100.00;99924.50;10451075;28;20044;-72
2022/10/01 07:13:26;;;;;;;0.00;0.00;;;;;;;9.03;100.00;99913.22;10451265;28;20017;-71
2022/10/01 07:18:27;;;;;;;0.00;0.00;;;;;;;9.06;100.00;99923.50;10450994;28;20391;-72
2022/10/01 07:23:27;;;;;;;0.10;0.10;;;;;;;9.10;100.00;99907.22;10450353;28;20603;-72
2022/10/01 07:28:27;;;;;;;0.00;0.00;;;;;;;9.14;100.00;99903.22;10450623;28;20433;-71
2022/10/01 07:33:28;;;;;;;0.00;0.00;;;;;;;9.21;100.00;99902.34;10449525;28;20365;-71
2022/10/01 07:38:29;;;;;;;0.00;0.00;;;;;;;9.25;100.00;99901.00;10449777;28;20099;-73
2022/10/01 07:43:31;;;;;;;0.10;0.10;;;;;;;9.27;100.00;99893.69;10449750;28;20021;-73
2022/10/01 07:48:31;;;;;;;0.10;0.10;;;;;;;9.30;100.00;99885.34;10449957;28;20091;-73
2022/10/01 07:53:32;;;;;;;0.00;0.00;;;;;;;9.31;100.00;99886.22;10449503;28;20017;-72
2022/10/01 07:58:33;;;;;;;0.00;0.00;;;;;;;9.32;100.00;99869.25;10449719;28;20100;-72
2022/10/01 08:03:33;;;;;;;0.00;0.00;;;;;;;9.34;100.00;99877.88;10449303;28;20024;-71
2022/10/01 08:08:33;;;;;;;0.10;0.10;;;;;;;9.38;100.00;99871.22;10449289;28;20093;-71
2022/10/01 08:13:34;;;;;;;0.00;0.00;;;;;;;9.40;100.00;99871.88;10446704;28;20070;-71
2022/10/01 08:18:35;;;;;;;0.00;0.00;;;;;;;9.46;100.00;99867.69;10449261;28;20025;-70
2022/10/01 08:23:36;;;;;;;0.00;0.00;;;;;;;9.48;100.00;99869.16;10431720;28;20063;-70
2022/10/01 08:28:36;;;;;;;0.08;0.08;;;;;;;9.53;100.00;99866.78;10450088;28;20017;-70
2022/10/01 08:33:37;;;;;;;0.08;0.08;;;;;;;9.60;100.00;99866.94;10444557;28;20032;-69
2022/10/01 08:38:39;;;;;;;0.10;0.10;;;;;;;9.66;100.00;99876.03;10428472;28;20024;-69
2022/10/01 08:43:40;;;;;;;0.10;0.10;;;;;;;9.73;100.00;99859.19;10446120;28;20468;-68
2022/10/01 08:49:07;;;;;;;0.00;0.00;;;;;;;9.77;100.00;99862.31;10453033;28;20025;-69
2022/10/01 08:54:13;;;;;;;0.10;0.10;;;;;;;9.84;100.00;99867.78;10442143;28;20029;-69
2022/10/01 08:59:26;;;;;;;0.00;0.00;;;;;;;9.94;100.00;99861.19;10460229;28;20017;-69
2022/10/01 09:04:26;;;;;;;0.00;0.00;;;;;;;10.05;100.00;99867.09;10459216;28;20032;-69
2022/10/01 09:10:03;;;;;;;0.00;0.00;;;;;;;10.14;100.00;99880.16;10460145;28;20590;-69
2022/10/01 09:15:38;;;;;;;0.10;0.10;;;;;;;10.31;100.00;99885.38;10459780;28;20053;-69
2022/10/01 09:20:45;;;;;;;0.10;0.10;;;;;;;10.48;100.00;99880.72;10459801;28;20384;-68
2022/10/01 09:25:49;;;;;;;0.10;0.10;;;;;;;10.64;100.00;99886.69;10458967;28;20025;-69
2022/10/01 09:30:58;;;;;;;0.10;0.10;;;;;;;10.76;100.00;99887.09;10458971;28;20029;-68
2022/10/01 09:36:07;;;;;;;0.00;0.00;;;;;;;11.01;100.00;99897.47;10457753;28;20059;-69
2022/10/01 09:41:09;;;;;;;0.00;0.00;;;;;;;11.46;100.00;99890.22;10458806;28;20060;-69
2022/10/01 09:46:16;;;;;;;0.00;0.00;;;;;;;12.47;100.00;99885.66;10458220;28;20025;-69
2022/10/01 09:51:41;;;;;;;0.10;0.10;;;;;;;13.06;100.00;99901.25;10456930;28;20013;-70
2022/10/01 09:56:47;;;;;;;0.10;0.10;;;;;;;13.06;100.00;99897.72;10458343;28;20479;-69
2022/10/01 10:01:59;;;;;;;0.10;0.10;;;;;;;13.13;100.00;99904.75;10457939;28;20076;-69
2022/10/01 10:07:04;;;;;;;0.10;0.10;;;;;;;13.56;100.00;99917.94;10443145;28;21027;-69
2022/10/01 10:12:09;;;;;;;0.00;0.00;;;;;;;13.98;100.00;99910.63;10461384;28;20025;-70
2022/10/01 10:17:18;;;;;;;0.10;0.10;;;;;;;14.40;100.00;99919.31;10460874;28;20318;-70
2022/10/01 10:22:24;;;;;;;0.00;0.00;;;;;;;14.49;100.00;99930.66;10461065;28;20013;-70
2022/10/01 10:27:28;;;;;;;0.10;0.10;;;;;;;14.36;100.00;99939.50;10460289;28;20029;-70
2022/10/01 10:32:28;;;;;;;0.10;0.10;;;;;;;14.46;100.00;99936.44;10461776;28;20090;-71
2022/10/01 10:37:34;;;;;;;0.10;0.10;;;;;;;14.46;100.00;99939.13;10459856;28;20085;-71
2022/10/01 10:42:37;;;;;;;0.00;0.00;;;;;;;14.44;100.00;99958.06;10458839;28;20060;-71
2022/10/01 10:47:45;;;;;;;0.00;0.00;;;;;;;14.73;100.00;99955.22;10440943;28;20176;-69
2022/10/01 10:52:45;;;;;;;0.10;0.10;;;;;;;14.90;100.00;99959.13;10456909;28;20032;-71
2022/10/01 10:57:46;;;;;;;0.10;0.10;;;;;;;15.36;100.00;99953.63;10457367;28;20027;-71
2022/10/01 11:02:54;;;;;;;0.10;0.10;;;;;;;15.71;100.00;99961.38;10437355;28;20266;-71
2022/10/01 11:08:00;;;;;;;0.10;0.10;;;;;;;15.81;100.00;99967.09;10454125;28;20255;-71
2022/10/01 11:13:17;;;;;;;0.10;0.10;;;;;;;15.83;100.00;99973.09;10452481;28;20140;-70
2022/10/01 11:19:00;;;;;;;0.10;0.10;;;;;;;15.74;100.00;99966.31;10453383;28;20029;-70
2022/10/01 11:24:14;;;;;;;0.10;0.10;;;;;;;15.88;100.00;99972.41;10449330;28;20037;-70
2022/10/01 11:29:49;;;;;;;0.00;0.00;;;;;;;15.95;100.00;99972.41;10434865;28;20114;-70
2022/10/01 11:34:58;;;;;;;0.00;0.00;;;;;;;16.41;100.00;99976.66;10450797;28;20040;-71
2022/10/01 11:40:10;;;;;;;0.10;0.10;;;;;;;16.48;100.00;99985.50;10451589;28;20078;-70
2022/10/01 11:45:18;;;;;;;0.10;0.10;;;;;;;16.27;100.00;99978.63;10433107;28;20416;-71
2022/10/01 11:50:24;;;;;;;0.00;0.00;;;;;;;15.83;100.00;99983.00;10452401;28;20040;-70
2022/10/01 12:01:15;;;;;;;0.10;0.10;;;;;;;16.09;100.00;99976.66;10452321;28;20021;-70
2022/10/01 12:06:17;;;;;;;0.10;0.10;;;;;;;16.05;100.00;99996.91;10452194;28;20029;-71
2022/10/01 12:11:34;;;;;;;0.10;0.10;;;;;;;15.91;100.00;99987.28;10453232;28;20067;-70
2022/10/01 12:16:59;;;;;;;0.10;0.10;;;;;;;16.21;100.00;99991.06;10452682;28;20043;-71
2022/10/01 12:22:06;;;;;;;0.05;0.05;;;;;;;16.51;100.00;99996.63;10453006;28;20075;-70
2022/10/01 12:27:18;;;;;;;0.10;0.10;;;;;;;16.69;100.00;99989.66;10460303;28;20068;-71
2022/10/01 12:32:37;;;;;;;0.10;0.10;;;;;;;16.62;100.00;99989.72;10458390;28;20547;-70
2022/10/01 12:38:02;;;;;;;0.10;0.10;;;;;;;16.26;100.00;99995.75;10392498;22;20037;-73
2022/10/01 12:43:12;;;;;;;0.10;0.10;;;;;;;15.97;100.00;99998.00;10347593;28;20088;-72
2022/10/01 12:48:31;;;;;;;0.00;0.00;;;;;;;15.35;100.00;100080.75;10374624;28;20440;-73
2022/10/01 12:53:43;;;;;;;0.10;0.10;;;;;;;14.09;100.00;100075.22;10374119;28;20029;-71
2022/10/01 12:58:56;;;;;;;0.10;0.10;;;;;;;13.33;100.00;100076.06;10374239;28;20481;-72
2022/10/01 13:04:16;;;;;;;0.10;0.10;;;;;;;12.93;100.00;100084.78;10372191;28;20026;-72
2022/10/01 13:09:49;;;;;;;0.10;0.10;;;;;;;12.69;100.00;100089.50;10369153;28;20026;-72
2022/10/01 13:14:52;;;;;;;0.10;0.10;;;;;;;12.73;100.00;100088.09;10350884;28;20467;-71
2022/10/01 13:20:15;;;;;;;0.10;0.10;;;;;;;12.89;100.00;100089.69;10333229;28;20022;-72
2022/10/01 13:25:31;;;;;;;0.10;0.10;;;;;;;13.14;100.00;100096.25;10332413;28;20022;-72
2022/10/01 13:30:48;;;;;;;0.00;0.00;;;;;;;13.45;100.00;100111.13;10332831;28;20030;-72
2022/10/01 13:36:00;;;;;;;0.10;0.10;;;;;;;13.60;100.00;100116.38;10349239;28;20038;-72
2022/10/01 13:41:03;;;;;;;0.10;0.10;;;;;;;13.80;100.00;100120.00;10335064;28;20106;-72
2022/10/01 13:46:07;;;;;;;0.10;0.10;;;;;;;14.00;100.00;100125.44;10337042;28;20026;-72
2022/10/01 13:51:10;;;;;;;0.10;0.10;;;;;;;13.97;100.00;100131.22;10356923;28;20107;-72
2022/10/01 13:56:13;;;;;;;0.10;0.10;;;;;;;14.03;100.00;100132.25;10371941;28;20025;-72
2022/10/01 14:01:13;;;;;;;0.10;0.10;;;;;;;13.91;100.00;100145.38;10371494;28;20100;-72
2022/10/01 14:06:35;;;;;;;0.10;0.10;;;;;;;13.83;100.00;100145.53;10368406;28;20105;-73
2022/10/01 14:16:58;;;;;;;0.00;0.00;;;;;;;13.81;100.00;100150.25;10371490;28;20025;-73
2022/10/01 14:22:28;;;;;;;0.10;0.10;;;;;;;13.80;100.00;100152.09;10362871;28;20022;-73
2022/10/01 14:27:41;;;;;;;0.00;0.00;;;;;;;13.88;100.00;100153.00;10369318;28;20159;-73
2022/10/01 14:33:06;;;;;;;0.10;0.10;;;;;;;14.04;100.00;100158.00;10369231;28;20164;-73
2022/10/01 14:38:18;;;;;;;0.10;0.10;;;;;;;14.26;100.00;100169.47;10366646;28;20538;-73
2022/10/01 14:43:24;;;;;;;0.00;0.00;;;;;;;14.30;100.00;100175.25;10357043;28;20105;-73
2022/10/01 14:48:29;;;;;;;0.05;0.05;;;;;;;14.22;100.00;100171.72;10329277;28;20034;-73
2022/10/01 14:53:33;;;;;;;0.10;0.10;;;;;;;14.26;100.00;100181.00;10328728;28;20026;-73
2022/10/01 14:59:06;;;;;;;0.10;0.10;;;;;;;14.34;100.00;100184.53;10342907;28;20030;-73
2022/10/01 15:04:15;;;;;;;0.10;0.10;;;;;;;14.29;100.00;100203.88;10316827;28;20022;-72
2022/10/01 15:09:17;;;;;;;0.10;0.10;;;;;;;14.11;100.00;100207.09;10369525;28;20022;-73
2022/10/01 15:14:23;;;;;;;0.10;0.10;;;;;;;13.93;100.00;100218.31;10367622;28;20040;-73
2022/10/01 15:19:24;;;;;;;0.10;0.10;;;;;;;13.88;100.00;100223.41;10369902;28;20369;-72
2022/10/01 15:24:40;;;;;;;0.10;0.10;;;;;;;13.82;100.00;100224.19;10367880;28;20021;-73
2022/10/01 15:29:42;;;;;;;0.10;0.10;;;;;;;13.65;100.00;100230.88;10351492;28;20021;-73
2022/10/01 15:34:47;;;;;;;0.00;0.00;;;;;;;13.61;100.00;100226.91;10325003;28;20033;-72
2022/10/01 15:39:50;;;;;;;0.00;0.00;;;;;;;13.59;100.00;100253.88;10364558;28;20029;-72
2022/10/01 15:45:19;;;;;;;0.00;0.00;;;;;;;13.56;100.00;100260.44;10348932;28;20021;-72
2022/10/01 15:50:23;;;;;;;0.10;0.10;;;;;;;13.47;100.00;100274.97;10345608;28;20109;-73
2022/10/01 15:55:33;;;;;;;0.10;0.10;;;;;;;13.35;100.00;100271.97;10366291;28;20053;-73
2022/10/01 16:00:38;;;;;;;0.10;0.10;;;;;;;13.21;100.00;100277.34;10330920;28;20077;-73
2022/10/01 16:05:45;;;;;;;0.10;0.10;;;;;;;13.10;100.00;100295.53;10342564;28;20018;-72
2022/10/01 16:11:06;;;;;;;0.10;0.10;;;;;;;12.97;100.00;100300.72;10327340;28;20058;-73
2022/10/01 16:16:09;;;;;;;0.10;0.10;;;;;;;12.85;100.00;100315.56;10354607;28;20040;-72
2022/10/01 16:21:10;;;;;;;0.10;0.10;;;;;;;12.71;100.00;100319.09;10367911;28;20092;-72
2022/10/01 16:26:28;;;;;;;0.00;0.00;;;;;;;12.61;100.00;100322.88;10367713;28;20097;-72
2022/10/01 16:31:30;;;;;;;0.10;0.10;;;;;;;12.51;100.00;100343.72;10333774;28;20155;-73
2022/10/01 16:36:31;;;;;;;0.10;0.10;;;;;;;12.41;100.00;100343.13;10355795;28;20033;-72
2022/10/01 16:41:35;;;;;;;0.10;0.10;;;;;;;12.31;100.00;100348.75;10361022;28;20014;-72
2022/10/01 16:46:35;;;;;;;0.10;0.10;;;;;;;12.19;100.00;100353.69;10312696;28;20045;-72
2022/10/01 16:51:35;;;;;;;0.00;0.00;;;;;;;12.13;100.00;100373.13;10325604;28;20022;-73
2022/10/01 16:56:35;;;;;;;0.10;0.10;;;;;;;12.04;100.00;100373.34;10326394;28;20270;-72
2022/10/01 17:01:36;;;;;;;0.10;0.10;;;;;;;12.03;100.00;100388.53;10325806;28;20010;-72
2022/10/01 17:06:36;;;;;;;0.10;0.10;;;;;;;11.98;100.00;100396.25;10356923;28;20096;-72
2022/10/01 17:11:37;;;;;;;0.10;0.10;;;;;;;11.92;100.00;100404.97;10332328;28;20022;-72
2022/10/01 17:16:37;;;;;;;0.10;0.10;;;;;;;11.84;100.00;100410.34;10354844;28;20096;-72
2022/10/01 17:21:38;;;;;;;0.10;0.10;;;;;;;11.79;100.00;100429.56;10339969;28;20029;-72
2022/10/01 17:26:40;;;;;;;0.10;0.10;;;;;;;11.74;100.00;100434.59;10333753;28;20025;-73
2022/10/01 17:31:43;;;;;;;0.10;0.10;;;;;;;11.71;100.00;100442.94;10346092;28;20118;-73
2022/10/01 17:36:44;;;;;;;0.00;0.00;;;;;;;11.68;100.00;100460.13;10362189;28;20064;-73
2022/10/01 17:41:44;;;;;;;0.10;0.10;;;;;;;11.65;100.00;100465.81;10372291;28;20301;-73
2022/10/01 17:46:46;;;;;;;0.10;0.10;;;;;;;11.64;100.00;100471.34;10373260;28;20029;-73
2022/10/01 17:51:48;;;;;;;0.10;0.10;;;;;;;11.61;100.00;100483.19;10355278;28;20489;-72
2022/10/01 17:56:51;;;;;;;0.10;0.10;;;;;;;11.61;100.00;100491.19;10346542;28;20030;-73
2022/10/01 18:01:53;;;;;;;0.10;0.10;;;;;;;11.57;100.00;100503.19;10355448;28;20100;-73
2022/10/01 18:06:54;;;;;;;0.05;0.05;;;;;;;11.56;100.00;100504.22;10371068;28;20030;-72
2022/10/01 18:11:55;;;;;;;0.10;0.10;;;;;;;11.55;100.00;100527.41;10331370;28;20029;-73
2022/10/01 18:16:55;;;;;;;0.10;0.10;;;;;;;11.53;100.00;100532.06;10365052;28;20022;-73
2022/10/01 18:21:57;;;;;;;0.10;0.10;;;;;;;11.47;100.00;100537.25;10370287;28;20431;-73
2022/10/01 18:26:58;;;;;;;0.10;0.10;;;;;;;11.38;100.00;100544.47;10349966;28;20036;-73
2022/10/01 18:32:11;;;;;;;0.10;0.10;;;;;;;11.37;100.00;100547.28;10329789;28;20022;-73
2022/10/01 18:37:35;;;;;;;0.10;0.10;;;;;;;11.43;100.00;100558.13;10410466;22;20406;-72
2022/10/01 18:42:50;;;;;;;0.10;0.10;;;;;;;11.50;100.00;100572.41;10403713;28;20045;-72
2022/10/01 18:48:17;;;;;;;0.10;0.10;;;;;;;11.52;100.00;100572.25;10390750;28;20165;-72
2022/10/01 18:54:00;;;;;;;0.10;0.10;;;;;;;11.47;100.00;100588.75;10384574;28;20025;-72
2022/10/01 18:59:16;;;;;;;0.10;0.10;;;;;;;11.39;100.00;100602.09;10362485;28;20047;-72
2022/10/01 19:04:22;;;;;;;0.10;0.10;;;;;;;11.32;100.00;100609.97;10383603;28;20083;-71
2022/10/01 19:09:42;;;;;;;0.10;0.10;;;;;;;11.24;100.00;100611.81;10384714;28;20029;-72
2022/10/01 19:15:18;;;;;;;0.10;0.10;;;;;;;11.16;100.00;100614.47;10383882;28;20079;-72
2022/10/01 19:20:44;;;;;;;0.00;0.00;;;;;;;11.13;100.00;100612.16;10367556;28;20531;-72
2022/10/01 19:25:53;;;;;;;0.10;0.10;;;;;;;11.10;100.00;100626.63;10386209;28;20503;-72
2022/10/01 19:31:22;;;;;;;0.10;0.10;;;;;;;11.07;100.00;100633.13;10381661;28;20088;-72
2022/10/01 19:36:36;;;;;;;0.10;0.10;;;;;;;11.04;100.00;100638.81;10338994;28;20065;-72
2022/10/01 19:41:46;;;;;;;0.10;0.10;;;;;;;10.97;100.00;100637.81;10399300;28;20032;-72
2022/10/01 19:46:48;;;;;;;0.10;0.10;;;;;;;10.90;100.00;100642.13;10385423;28;20121;-72
2022/10/01 19:51:56;;;;;;;0.10;0.10;;;;;;;10.83;100.00;100647.28;10385463;28;20030;-72
2022/10/01 19:57:03;;;;;;;0.10;0.10;;;;;;;10.76;100.00;100654.28;10387245;28;20026;-72
2022/10/01 20:02:12;;;;;;;0.10;0.10;;;;;;;10.71;100.00;100659.28;10391321;28;20046;-72
2022/10/01 20:07:26;;;;;;;0.10;0.10;;;;;;;10.68;100.00;100672.91;10397038;28;20032;-72
2022/10/01 20:13:08;;;;;;;0.03;0.03;;;;;;;10.72;100.00;100681.41;10385540;28;20060;-72
2022/10/01 20:18:43;;;;;;;0.00;0.00;;;;;;;10.72;100.00;100684.91;10344215;28;20040;-72
2022/10/01 20:24:13;;;;;;;0.10;0.10;;;;;;;10.71;100.00;100701.91;10388770;28;20072;-72
2022/10/01 20:29:44;;;;;;;0.10;0.10;;;;;;;10.63;100.00;100693.88;10385953;28;20030;-72
2022/10/01 20:35:06;;;;;;;0.00;0.00;;;;;;;10.58;100.00;100702.34;10381459;28;20037;-71
2022/10/01 20:40:23;;;;;;;0.10;0.10;;;;;;;10.51;100.00;100701.34;10379893;28;20029;-72
2022/10/01 20:45:27;;;;;;;0.10;0.10;;;;;;;10.48;100.00;100712.31;10385334;28;20040;-71
2022/10/01 20:50:33;;;;;;;0.10;0.10;;;;;;;10.48;100.00;100717.63;10397191;28;20492;-71
2022/10/01 20:55:39;;;;;;;0.10;0.10;;;;;;;10.48;100.00;100730.97;10392756;28;20443;-71
2022/10/01 21:00:42;;;;;;;0.10;0.10;;;;;;;10.49;100.00;100723.78;10395274;28;20022;-71
2022/10/01 21:06:09;;;;;;;0.10;0.10;;;;;;;10.48;100.00;100748.78;10392202;28;20021;-71
2022/10/01 21:11:24;;;;;;;0.10;0.10;;;;;;;10.49;100.00;100755.75;10383220;28;20033;-71
2022/10/01 21:16:39;;;;;;;0.10;0.10;;;;;;;10.47;100.00;100755.06;10393606;28;20025;-70
2022/10/01 21:21:40;;;;;;;0.10;0.10;;;;;;;10.42;100.00;100776.88;10386052;28;20022;-71
2022/10/01 21:26:59;;;;;;;0.10;0.10;;;;;;;10.40;100.00;100784.19;10396977;28;20025;-71
2022/10/01 21:32:18;;;;;;;0.00;0.00;;;;;;;10.43;100.00;100794.50;10401482;28;20033;-71
2022/10/01 21:37:29;;;;;;;0.00;0.00;;;;;;;10.56;100.00;100789.59;10394537;28;20430;-71
2022/10/01 21:42:40;;;;;;;0.00;0.00;;;;;;;10.68;100.00;100791.97;10391392;28;20425;-71
2022/10/01 21:48:06;;;;;;;0.00;0.00;;;;;;;10.79;100.00;100802.31;10390347;28;20070;-71
2022/10/01 21:53:25;;;;;;;0.00;0.00;;;;;;;10.74;100.00;100816.13;10390680;28;20022;-71
2022/10/01 21:58:43;;;;;;;0.05;0.05;;;;;;;10.75;100.00;100838.28;10392274;28;20026;-71
2022/10/01 22:04:04;;;;;;;0.10;0.10;;;;;;;10.84;100.00;100837.31;10390864;28;20391;-72
2022/10/01 22:09:31;;;;;;;0.10;0.10;;;;;;;10.87;100.00;100837.81;10405619;28;20503;-72
2022/10/01 22:14:31;;;;;;;0.10;0.10;;;;;;;10.88;100.00;100839.50;10392151;28;20048;-72
2022/10/01 22:19:39;;;;;;;0.00;0.00;;;;;;;10.88;100.00;100846.66;10396071;28;20041;-72
2022/10/01 22:24:47;;;;;;;0.00;0.00;;;;;;;10.75;100.00;100847.09;10398949;28;20021;-72
2022/10/01 22:30:12;;;;;;;0.10;0.10;;;;;;;10.60;100.00;100843.38;10380496;28;20090;-72
2022/10/01 22:35:23;;;;;;;0.00;0.00;;;;;;;10.48;100.00;100839.31;10385367;28;20359;-72
2022/10/01 22:40:32;;;;;;;0.10;0.10;;;;;;;10.43;100.00;100858.41;10382573;28;20107;-72
2022/10/01 22:46:05;;;;;;;0.00;0.00;;;;;;;10.41;100.00;100855.91;10390923;28;20017;-71
2022/10/01 22:51:25;;;;;;;0.10;0.10;;;;;;;10.39;100.00;100859.72;10390750;28;20022;-72
2022/10/01 22:56:35;;;;;;;0.00;0.00;;;;;;;10.29;100.00;100862.47;10392162;28;20028;-71
2022/10/01 23:02:15;;;;;;;0.10;0.10;;;;;;;10.19;100.00;100857.22;10387399;28;20025;-72
2022/10/01 23:07:19;;;;;;;0.10;0.10;;;;;;;10.14;100.00;100850.72;10380091;28;20021;-72
2022/10/01 23:12:34;;;;;;;0.00;0.00;;;;;;;10.10;100.00;100852.03;10386735;28;20108;-72
2022/10/01 23:18:01;;;;;;;0.10;0.10;;;;;;;10.08;100.00;100868.13;10382710;28;20111;-71
2022/10/01 23:23:19;;;;;;;0.10;0.10;;;;;;;10.04;100.00;100858.78;10401517;28;20496;-71
2022/10/01 23:28:38;;;;;;;0.00;0.00;;;;;;;10.05;100.00;100870.28;10394647;28;20041;-71
2022/10/01 23:33:44;;;;;;;0.10;0.10;;;;;;;10.00;100.00;100878.69;10390782;28;20109;-71
2022/10/01 23:39:03;;;;;;;0.00;0.00;;;;;;;10.01;100.00;100880.41;10391846;28;20045;-70
2022/10/01 23:44:16;;;;;;;0.10;0.10;;;;;;;10.09;100.00;100880.44;10375936;28;20040;-71
2022/10/01 23:49:22;;;;;;;0.00;0.00;;;;;;;10.15;100.00;100877.19;10391550;28;20041;-71